createdAt,value
2022-11-14T00:00:30.681Z,98496.97
2022-11-14T00:03:02.566Z,98496.44
2022-11-14T00:05:32.516Z,98501.94
2022-11-14T00:08:02.164Z,98490.78
2022-11-14T00:10:31.631Z,98480.03
2022-11-14T00:13:02.443Z,98482.53
2022-11-14T00:15:32.163Z,98469.34
2022-11-14T00:18:03.390Z,98469.22
2022-11-14T00:20:34.238Z,98467.63
2022-11-14T00:23:03.756Z,98464.91
2022-11-14T00:25:33.744Z,98476.38
2022-11-14T00:28:04.665Z,98475.16
2022-11-14T00:30:34.269Z,98472.47
2022-11-14T00:33:03.530Z,98462.66
2022-11-14T00:35:32.610Z,98465.50
2022-11-14T00:38:02.086Z,98461.22
2022-11-14T00:40:31.710Z,98454.72
2022-11-14T00:43:04.690Z,98451.56
2022-11-14T00:45:35.796Z,98459.06
2022-11-14T00:48:05.341Z,98457.78
2022-11-14T00:50:34.868Z,98461.63
2022-11-14T00:53:08.467Z,98452.13
2022-11-14T00:55:38.354Z,98455.03
2022-11-14T00:58:08.060Z,98461.53
2022-11-14T01:00:39.389Z,98459.50
2022-11-14T01:03:09.112Z,98454.56
2022-11-14T01:05:43.490Z,98467.06
2022-11-14T01:08:13.142Z,98462.72
2022-11-14T01:10:43.241Z,98464.63
2022-11-14T01:13:13.051Z,98468.53
2022-11-14T01:15:45.402Z,98457.41
2022-11-14T01:18:16.427Z,98451.31
2022-11-14T01:20:47.311Z,98454.59
2022-11-14T01:23:18.180Z,98463.06
2022-11-14T01:25:47.728Z,98464.69
2022-11-14T01:28:19.380Z,98461.59
2022-11-14T01:30:50.561Z,98450.06
2022-11-14T01:33:22.599Z,98446.72
2022-11-14T01:35:52.020Z,98457.19
2022-11-14T01:38:21.828Z,98454.56
2022-11-14T01:40:51.443Z,98453.38
2022-11-14T01:43:30.427Z,98456.09
2022-11-14T01:46:03.592Z,98438.34
2022-11-14T01:48:37.968Z,98450.50
2022-11-14T01:51:19.072Z,98443.66
2022-11-14T01:53:50.072Z,98438.25
2022-11-14T01:56:22.886Z,98438.19
2022-11-14T01:58:57.758Z,98434.97
2022-11-14T02:01:29.230Z,98429.50
2022-11-14T02:03:59.873Z,98425.72
2022-11-14T02:06:31.805Z,98426.66
2022-11-14T02:09:03.731Z,98424.03
2022-11-14T02:11:36.470Z,98411.38
2022-11-14T02:14:06.626Z,98413.38
2022-11-14T02:16:38.063Z,98402.25
2022-11-14T02:19:08.074Z,98401.84
2022-11-14T02:21:39.168Z,98401.00
2022-11-14T02:24:11.250Z,98401.69
2022-11-14T02:26:40.935Z,98401.63
2022-11-14T02:29:11.821Z,98396.16
2022-11-14T02:31:41.256Z,98397.47
2022-11-14T02:34:11.218Z,98397.28
2022-11-14T02:36:42.510Z,98391.72
2022-11-14T02:39:12.728Z,98396.47
2022-11-14T02:41:42.394Z,98391.03
2022-11-14T02:44:12.024Z,98399.59
2022-11-14T02:46:41.780Z,98400.69
2022-11-14T02:49:11.724Z,98400.84
2022-11-14T02:51:42.895Z,98387.06
2022-11-14T02:54:12.549Z,98392.50
2022-11-14T02:56:43.898Z,98381.28
2022-11-14T02:59:13.988Z,98380.63
2022-11-14T03:01:43.581Z,98391.75
2022-11-14T03:04:13.308Z,98383.28
2022-11-14T03:06:47.007Z,98381.72
2022-11-14T03:09:16.667Z,98386.56
2022-11-14T03:11:46.127Z,98383.09
2022-11-14T03:14:15.612Z,98378.53
2022-11-14T03:16:47.859Z,98379.63
2022-11-14T03:19:17.039Z,98381.88
2022-11-14T03:21:48.127Z,98382.72
2022-11-14T03:24:17.601Z,98375.94
2022-11-14T03:26:47.552Z,98373.69
2022-11-14T03:29:17.140Z,98366.41
2022-11-14T03:31:46.779Z,98368.75
2022-11-14T03:34:16.284Z,98368.78
2022-11-14T03:36:47.840Z,98366.81
2022-11-14T03:39:17.653Z,98362.56
2022-11-14T03:41:47.045Z,98359.75
2022-11-14T03:44:19.122Z,98356.31
2022-11-14T03:46:48.559Z,98350.75
2022-11-14T03:49:18.071Z,98347.22
2022-11-14T03:51:49.401Z,98352.44
2022-11-14T03:54:19.053Z,98345.22
2022-11-14T03:56:48.591Z,98356.16
2022-11-14T03:59:18.232Z,98352.75
2022-11-14T04:01:49.035Z,98367.97
2022-11-14T04:04:18.674Z,98359.41
2022-11-14T04:06:49.608Z,98363.28
2022-11-14T04:09:19.381Z,98362.56
2022-11-14T04:11:48.923Z,98363.66
2022-11-14T04:14:18.589Z,98361.66
2022-11-14T04:16:48.235Z,98366.66
2022-11-14T04:19:23.507Z,98375.69
2022-11-14T04:21:54.928Z,98374.41
2022-11-14T04:25:41.243Z,98369.97
2022-11-14T04:28:18.583Z,98379.75
2022-11-14T04:30:48.683Z,98369.50
2022-11-14T04:33:18.085Z,98373.94
2022-11-14T04:35:47.347Z,98376.34
2022-11-14T04:38:17.926Z,98379.50
2022-11-14T04:40:51.427Z,98377.25
2022-11-14T04:43:21.394Z,98375.13
2022-11-14T04:45:50.739Z,98376.03
2022-11-14T04:48:23.708Z,98378.72
2022-11-14T04:50:53.443Z,98369.75
2022-11-14T04:53:24.371Z,98364.22
2022-11-14T04:55:54.289Z,98349.53
2022-11-14T04:58:23.789Z,98341.13
2022-11-14T05:00:53.554Z,98363.09
2022-11-14T05:03:23.278Z,98363.34
2022-11-14T05:05:52.892Z,98359.50
2022-11-14T05:08:24.624Z,98364.75
2022-11-14T05:10:56.958Z,98357.41
2022-11-14T05:13:26.644Z,98351.22
2022-11-14T05:15:59.467Z,98351.53
2022-11-14T05:18:29.680Z,98353.56
2022-11-14T05:21:00.616Z,98366.34
2022-11-14T05:23:31.589Z,98360.94
2022-11-14T05:26:02.886Z,98356.47
2022-11-14T05:28:32.766Z,98368.00
2022-11-14T05:31:06.157Z,98363.41
2022-11-14T05:33:36.079Z,98366.00
2022-11-14T05:36:06.536Z,98357.94
2022-11-14T05:38:37.502Z,98346.63
2022-11-14T05:41:08.239Z,98343.25
2022-11-14T05:43:38.370Z,98358.69
2022-11-14T05:46:10.699Z,98370.72
2022-11-14T05:48:40.514Z,98367.75
2022-11-14T05:51:11.971Z,98364.88
2022-11-14T05:53:43.663Z,98366.72
2022-11-14T05:56:14.690Z,98375.44
2022-11-14T05:58:44.275Z,98370.88
2022-11-14T06:01:14.784Z,98366.34
2022-11-14T06:03:45.814Z,98369.75
2022-11-14T06:06:17.169Z,98367.97
2022-11-14T06:08:48.563Z,98360.03
2022-11-14T06:11:19.987Z,98370.00
2022-11-14T06:13:49.830Z,98361.38
2022-11-14T06:16:21.016Z,98364.44
2022-11-14T06:18:50.567Z,98365.16
2022-11-14T06:21:22.222Z,98368.50
2022-11-14T06:23:53.499Z,98372.47
2022-11-14T06:26:24.623Z,98369.41
2022-11-14T06:28:54.801Z,98375.47
2022-11-14T06:31:25.309Z,98380.84
2022-11-14T06:33:55.169Z,98375.25
2022-11-14T06:36:25.038Z,98377.63
2022-11-14T06:38:56.021Z,98372.94
2022-11-14T06:41:25.964Z,98374.19
2022-11-14T06:43:55.478Z,98366.47
2022-11-14T06:46:25.574Z,98370.22
2022-11-14T06:48:55.182Z,98369.25
2022-11-14T06:51:24.595Z,98373.50
2022-11-14T06:53:55.578Z,98374.34
2022-11-14T06:56:25.401Z,98375.50
2022-11-14T06:58:55.996Z,98377.75
2022-11-14T07:01:27.244Z,98380.94
2022-11-14T07:03:58.854Z,98373.00
2022-11-14T07:06:30.078Z,98368.06
2022-11-14T07:09:01.146Z,98368.69
2022-11-14T07:11:32.235Z,98373.28
2022-11-14T07:14:02.991Z,98371.53
2022-11-14T07:16:35.087Z,98376.47
2022-11-14T07:19:06.835Z,98376.19
2022-11-14T07:21:36.742Z,98379.88
2022-11-14T07:24:08.946Z,98379.63
2022-11-14T07:26:38.781Z,98373.94
2022-11-14T07:29:08.561Z,98373.16
2022-11-14T07:31:38.063Z,98374.34
2022-11-14T07:34:07.967Z,98364.34
2022-11-14T07:36:37.418Z,98356.75
2022-11-14T07:39:08.414Z,98356.81
2022-11-14T07:41:38.031Z,98357.97
2022-11-14T07:44:07.432Z,98351.09
2022-11-14T07:46:36.947Z,98346.31
2022-11-14T07:49:06.590Z,98345.59
2022-11-14T07:51:36.111Z,98355.66
2022-11-14T07:54:05.684Z,98354.09
2022-11-14T07:56:36.820Z,98359.84
2022-11-14T07:59:06.613Z,98356.69
2022-11-14T08:01:36.444Z,98340.94
2022-11-14T08:04:08.007Z,98358.00
2022-11-14T08:06:37.929Z,98354.94
2022-11-14T08:09:08.583Z,98356.56
2022-11-14T08:11:52.088Z,98352.97
2022-11-14T08:14:21.565Z,98349.16
2022-11-14T08:17:01.840Z,98353.31
2022-11-14T08:19:31.287Z,98358.03
2022-11-14T08:22:00.859Z,98352.75
2022-11-14T08:24:30.230Z,98340.63
2022-11-14T08:27:03.630Z,98336.00
2022-11-14T08:29:33.246Z,98337.53
2022-11-14T08:32:02.718Z,98328.72
2022-11-14T08:34:32.248Z,98337.16
2022-11-14T08:37:02.904Z,98339.09
2022-11-14T08:39:32.881Z,98344.06
2022-11-14T08:42:04.076Z,98337.63
2022-11-14T08:44:34.275Z,98344.22
2022-11-14T08:47:04.079Z,98343.34
2022-11-14T08:49:33.431Z,98343.75
2022-11-14T08:52:02.706Z,98337.19
2022-11-14T08:54:34.221Z,98334.78
2022-11-14T08:57:06.660Z,98341.06
2022-11-14T08:59:36.293Z,98337.97
2022-11-14T09:02:05.896Z,98340.97
2022-11-14T09:04:35.327Z,98343.34
2022-11-14T09:07:05.177Z,98348.34
2022-11-14T09:09:34.547Z,98350.34
2022-11-14T09:12:06.271Z,98345.25
2022-11-14T09:14:38.348Z,98350.41
2022-11-14T09:17:07.632Z,98344.25
2022-11-14T09:19:37.398Z,98330.75
2022-11-14T09:22:06.717Z,98343.91
2022-11-14T09:24:37.117Z,98333.44
2022-11-14T09:27:08.306Z,98327.66
2022-11-14T09:29:37.889Z,98328.41
2022-11-14T09:32:09.643Z,98321.44
2022-11-14T09:34:43.037Z,98323.78
2022-11-14T09:37:12.594Z,98307.50
2022-11-14T09:39:41.899Z,98310.22
2022-11-14T09:42:24.351Z,98297.81
2022-11-14T09:44:59.805Z,98291.25
2022-11-14T09:47:32.190Z,98290.09
2022-11-14T09:50:07.339Z,98290.06
2022-11-14T09:52:39.288Z,98287.75
2022-11-14T09:55:13.682Z,98274.59
2022-11-14T09:57:47.160Z,98284.25
2022-11-14T10:00:19.056Z,98273.81
2022-11-14T10:03:11.094Z,98270.34
2022-11-14T10:06:09.337Z,98272.22
2022-11-14T10:08:49.544Z,98266.78
2022-11-14T10:11:23.724Z,98269.88
2022-11-14T10:14:29.111Z,98261.53
2022-11-14T10:17:10.691Z,98264.44
2022-11-14T10:19:43.981Z,98263.97
2022-11-14T10:22:23.278Z,98257.22
2022-11-14T10:25:09.102Z,98267.84
2022-11-14T10:27:43.865Z,98260.06
2022-11-14T10:30:16.788Z,98252.56
2022-11-14T10:33:04.642Z,98255.28
2022-11-14T10:35:37.914Z,98259.34
2022-11-14T10:38:13.760Z,98262.69
2022-11-14T10:40:44.668Z,98256.91
2022-11-14T10:43:20.672Z,98261.56
2022-11-14T10:45:54.047Z,98256.59
2022-11-14T10:48:32.207Z,98243.03
2022-11-14T10:51:04.725Z,98242.66
2022-11-14T10:53:43.196Z,98242.69
2022-11-14T10:56:14.853Z,98242.53
2022-11-14T10:58:49.070Z,98232.19
2022-11-14T11:01:38.595Z,98228.25
2022-11-14T11:04:22.977Z,98221.06
2022-11-14T11:06:53.853Z,98221.06
2022-11-14T11:09:45.911Z,98224.28
2022-11-14T11:12:19.333Z,98215.31
2022-11-14T11:14:50.476Z,98207.53
2022-11-14T11:17:29.591Z,98202.09
2022-11-14T11:20:26.570Z,98207.00
2022-11-14T11:23:05.320Z,98201.78
2022-11-14T11:25:36.004Z,98199.03
2022-11-14T11:28:12.918Z,98187.50
2022-11-14T11:30:42.910Z,98184.78
2022-11-14T11:33:25.255Z,98184.66
2022-11-14T11:35:58.092Z,98175.75
2022-11-14T11:38:30.700Z,98168.78
2022-11-14T11:41:15.528Z,98165.13
2022-11-14T11:43:58.854Z,98167.97
2022-11-14T11:46:36.287Z,98160.19
2022-11-14T11:49:13.416Z,98149.31
2022-11-14T11:51:44.359Z,98151.44
2022-11-14T11:54:17.361Z,98152.31
2022-11-14T11:56:49.061Z,98143.25
2022-11-14T11:59:28.971Z,98143.28
2022-11-14T12:01:58.304Z,98139.94
2022-11-14T12:04:29.442Z,98135.47
2022-11-14T12:07:05.876Z,98141.22
2022-11-14T12:10:08.615Z,98138.19
2022-11-14T12:12:39.834Z,98131.19
2022-11-14T12:15:19.324Z,98135.78
2022-11-14T12:18:13.931Z,98122.75
2022-11-14T12:20:53.247Z,98123.88
2022-11-14T12:23:45.787Z,98113.03
2022-11-14T12:26:30.391Z,98110.84
2022-11-14T12:29:14.023Z,98109.97
2022-11-14T12:31:43.701Z,98107.88
2022-11-14T12:34:20.806Z,98110.31
2022-11-14T12:36:51.969Z,98106.75
2022-11-14T12:39:27.107Z,98121.38
2022-11-14T12:42:04.748Z,98112.38
2022-11-14T12:44:36.896Z,98107.97
2022-11-14T12:47:20.902Z,98114.06
2022-11-14T12:50:06.540Z,98115.00
2022-11-14T12:52:51.288Z,98109.50
2022-11-14T12:55:55.884Z,98113.78
2022-11-14T12:58:32.042Z,98109.16
2022-11-14T13:01:12.635Z,98098.84
2022-11-14T13:03:52.068Z,98101.13
2022-11-14T13:06:25.149Z,98113.34
2022-11-14T13:09:30.436Z,98099.03
2022-11-14T13:12:18.654Z,98089.22
2022-11-14T13:15:09.703Z,98095.13
2022-11-14T13:17:56.722Z,98085.56
2022-11-14T13:20:49.399Z,98094.44
2022-11-14T13:23:51.698Z,98091.09
2022-11-14T13:26:42.680Z,98088.50
2022-11-14T13:30:00.311Z,98085.31
2022-11-14T13:33:10.910Z,98082.34
2022-11-14T13:36:05.096Z,98097.69
2022-11-14T13:38:54.793Z,98092.78
2022-11-14T13:41:47.499Z,98097.31
2022-11-14T13:44:48.655Z,98089.16
2022-11-14T13:47:36.575Z,98087.34
2022-11-14T13:50:09.400Z,98082.91
2022-11-14T13:52:43.864Z,98079.22
2022-11-14T13:55:22.572Z,98075.84
2022-11-14T13:58:05.989Z,98074.63
2022-11-14T14:00:52.435Z,98074.72
2022-11-14T14:03:30.488Z,98063.66
2022-11-14T14:06:22.823Z,98068.28
2022-11-14T14:09:11.650Z,98066.91
2022-11-14T14:11:59.780Z,98074.22
2022-11-14T14:14:40.055Z,98072.88
2022-11-14T14:17:13.166Z,98074.25
2022-11-14T14:19:53.308Z,98077.25
2022-11-14T14:22:30.015Z,98073.59
2022-11-14T14:25:04.891Z,98062.38
2022-11-14T14:27:40.883Z,98062.34
2022-11-14T14:30:12.458Z,98072.16
2022-11-14T14:32:41.819Z,98059.78
2022-11-14T14:35:24.942Z,98061.66
2022-11-14T14:37:57.035Z,98063.38
2022-11-14T14:40:28.511Z,98066.94
2022-11-14T14:42:58.592Z,98070.00
2022-11-14T14:45:29.630Z,98071.09
2022-11-14T14:48:04.250Z,98063.56
2022-11-14T14:50:38.331Z,98063.00
2022-11-14T14:53:09.774Z,98068.34
2022-11-14T14:55:39.104Z,98057.81
2022-11-14T14:58:25.016Z,98061.44
2022-11-14T15:00:56.101Z,98067.88
2022-11-14T15:03:25.852Z,98062.47
2022-11-14T15:06:03.021Z,98056.72
2022-11-14T15:08:37.570Z,98060.66
2022-11-14T15:11:08.400Z,98059.31
2022-11-14T15:13:39.340Z,98061.59
2022-11-14T15:16:10.289Z,98062.22
2022-11-14T15:18:40.270Z,98066.16
2022-11-14T15:21:18.230Z,98066.50
2022-11-14T15:23:48.904Z,98069.84
2022-11-14T15:26:20.218Z,98069.22
2022-11-14T15:28:50.815Z,98066.19
2022-11-14T15:31:21.544Z,98063.94
2022-11-14T15:34:03.937Z,98068.38
2022-11-14T15:36:33.359Z,98064.91
2022-11-14T15:39:22.715Z,98066.38
2022-11-14T15:41:52.053Z,98067.44
2022-11-14T15:44:33.476Z,98053.28
2022-11-14T15:47:03.955Z,98058.94
2022-11-14T15:49:34.085Z,98062.72
2022-11-14T15:52:05.759Z,98061.13
2022-11-14T15:54:39.531Z,98062.34
2022-11-14T15:57:14.546Z,98061.88
2022-11-14T15:59:44.266Z,98060.03
2022-11-14T16:02:16.537Z,98062.81
2022-11-14T16:04:47.966Z,98057.88
2022-11-14T16:07:19.126Z,98060.56
2022-11-14T16:09:50.530Z,98058.06
2022-11-14T16:12:20.427Z,98054.47
2022-11-14T16:14:50.235Z,98060.34
2022-11-14T16:17:23.373Z,98061.84
2022-11-14T16:19:52.704Z,98054.25
2022-11-14T16:22:22.018Z,98050.41
2022-11-14T16:24:55.475Z,98051.22
2022-11-14T16:27:24.792Z,98048.75
2022-11-14T16:29:54.173Z,98046.47
2022-11-14T16:32:26.818Z,98054.84
2022-11-14T16:34:57.021Z,98057.69
2022-11-14T16:37:26.365Z,98057.31
2022-11-14T16:39:57.361Z,98058.41
2022-11-14T16:42:26.869Z,98057.78
2022-11-14T16:45:02.221Z,98053.22
2022-11-14T16:47:33.108Z,98044.22
2022-11-14T16:50:02.832Z,98045.19
2022-11-14T16:52:32.449Z,98048.66
2022-11-14T16:55:03.802Z,98047.31
2022-11-14T16:57:33.241Z,98047.00
2022-11-14T17:00:03.061Z,98050.31
2022-11-14T17:02:35.070Z,98041.03
2022-11-14T17:05:04.852Z,98042.88
2022-11-14T17:07:34.314Z,98048.09
2022-11-14T17:10:05.675Z,98038.84
2022-11-14T17:12:35.580Z,98031.09
2022-11-14T17:15:05.674Z,98034.19
2022-11-14T17:17:35.606Z,98037.19
2022-11-14T17:20:07.459Z,98037.22
2022-11-14T17:22:37.563Z,98040.75
2022-11-14T17:25:09.662Z,98037.47
2022-11-14T17:27:39.153Z,98042.78
2022-11-14T17:30:11.214Z,98045.03
2022-11-14T17:32:40.728Z,98041.13
2022-11-14T17:35:11.204Z,98037.13
2022-11-14T17:37:40.725Z,98047.00
2022-11-14T17:40:15.684Z,98036.56
2022-11-14T17:42:45.575Z,98024.22
2022-11-14T17:45:14.965Z,98020.38
2022-11-14T17:47:44.692Z,98013.78
2022-11-14T17:50:14.223Z,98017.63
2022-11-14T17:52:43.761Z,98023.44
2022-11-14T17:55:14.862Z,98031.81
2022-11-14T17:57:46.853Z,98027.88
2022-11-14T18:00:17.660Z,98020.34
2022-11-14T18:02:47.828Z,98019.88
2022-11-14T18:05:25.352Z,98014.38
2022-11-14T18:07:57.210Z,98023.47
2022-11-14T18:10:28.101Z,98032.94
2022-11-14T18:12:57.483Z,98021.06
2022-11-14T18:15:28.343Z,98029.63
2022-11-14T18:17:59.400Z,98032.03
2022-11-14T18:20:29.247Z,98025.34
2022-11-14T18:22:58.756Z,98022.34
2022-11-14T18:25:31.557Z,98022.59
2022-11-14T18:28:01.159Z,98019.13
2022-11-14T18:30:46.018Z,98021.91
2022-11-14T18:33:15.554Z,98023.59
2022-11-14T18:35:45.329Z,98019.31
2022-11-14T18:38:15.518Z,98012.28
2022-11-14T18:40:47.053Z,98007.88
2022-11-14T18:43:18.028Z,98007.88
2022-11-14T18:45:47.810Z,98017.94
2022-11-14T18:48:17.612Z,98019.88
2022-11-14T18:50:51.423Z,98016.06
2022-11-14T18:53:21.980Z,98021.38
2022-11-14T18:55:53.780Z,98020.00
2022-11-14T18:58:23.452Z,98018.31
2022-11-14T19:00:52.487Z,98010.16
2022-11-14T19:03:22.115Z,98009.66
2022-11-14T19:05:51.683Z,98007.47
2022-11-14T19:08:21.036Z,98004.66
2022-11-14T19:10:54.160Z,98004.31
2022-11-14T19:13:26.121Z,98006.59
2022-11-14T19:15:56.014Z,98002.41
2022-11-14T19:18:26.871Z,98010.59
2022-11-14T19:21:00.730Z,98009.91
2022-11-14T19:23:31.492Z,98006.88
2022-11-14T19:26:04.074Z,98003.34
2022-11-14T19:28:34.572Z,98001.78
2022-11-14T19:31:04.401Z,97996.72
2022-11-14T19:37:00.025Z,97986.53
2022-11-14T19:39:33.003Z,97981.59
2022-11-14T19:42:03.806Z,97975.38
2022-11-14T19:44:33.277Z,97974.50
2022-11-14T19:47:04.066Z,97974.63
2022-11-14T19:49:33.782Z,97976.16
2022-11-14T19:52:03.837Z,97975.78
2022-11-14T19:54:34.808Z,97969.91
2022-11-14T19:57:06.098Z,97969.91
2022-11-14T19:59:35.843Z,97972.16
2022-11-14T20:02:05.502Z,97977.63
2022-11-14T20:04:38.007Z,97972.44
2022-11-14T20:07:08.498Z,97975.16
2022-11-14T20:09:39.236Z,97977.59
2022-11-14T20:12:10.426Z,97986.84
2022-11-14T20:14:40.509Z,97967.63
2022-11-14T20:17:10.835Z,97971.88
2022-11-14T20:19:43.558Z,97966.66
2022-11-14T20:22:13.235Z,97969.50
2022-11-14T20:24:44.086Z,97959.50
2022-11-14T20:27:15.876Z,97961.03
2022-11-14T20:29:47.295Z,97955.50
2022-11-14T20:32:17.005Z,97947.38
2022-11-14T20:34:46.647Z,97948.97
2022-11-14T20:37:17.864Z,97944.78
2022-11-14T20:39:47.154Z,97934.81
2022-11-14T20:42:18.451Z,97927.81
2022-11-14T20:44:48.354Z,97936.97
2022-11-14T20:47:18.596Z,97929.94
2022-11-14T20:49:48.106Z,97933.66
2022-11-14T20:52:18.792Z,97930.50
2022-11-14T20:54:48.384Z,97927.75
2022-11-14T20:57:20.144Z,97934.94
2022-11-14T20:59:50.176Z,97935.69
2022-11-14T21:02:20.881Z,97944.16
2022-11-14T21:04:51.665Z,97937.31
2022-11-14T21:07:23.613Z,97934.94
2022-11-14T21:10:14.454Z,97944.94
2022-11-14T21:13:06.393Z,97940.31
2022-11-14T21:15:36.686Z,97927.25
2022-11-14T21:18:06.786Z,97929.53
2022-11-14T21:20:36.557Z,97910.38
2022-11-14T21:23:05.863Z,97923.47
2022-11-14T21:25:35.630Z,97907.34
2022-11-14T21:28:24.483Z,97910.22
2022-11-14T21:30:58.783Z,97903.16
2022-11-14T21:33:30.169Z,97901.53
2022-11-14T21:36:16.562Z,97906.38
2022-11-14T21:38:53.055Z,97906.06
2022-11-14T21:41:24.061Z,97903.72
2022-11-14T21:43:57.126Z,97905.38
2022-11-14T21:46:27.013Z,97894.59
2022-11-14T21:48:57.439Z,97892.00
2022-11-14T21:51:29.637Z,97888.19
2022-11-14T21:54:00.012Z,97887.56
2022-11-14T21:56:31.145Z,97893.72
2022-11-14T21:59:15.872Z,97889.25
2022-11-14T22:02:10.148Z,97885.38
2022-11-14T22:04:40.468Z,97887.63
2022-11-14T22:07:10.602Z,97882.97
2022-11-14T22:09:45.085Z,97881.88
2022-11-14T22:12:14.895Z,97876.22
2022-11-14T22:14:46.618Z,97880.88
2022-11-14T22:17:16.029Z,97881.00
2022-11-14T22:19:45.935Z,97886.78
2022-11-14T22:22:15.210Z,97882.41
2022-11-14T22:24:45.364Z,97882.09
2022-11-14T22:27:15.020Z,97886.53
2022-11-14T22:29:45.930Z,97878.72
2022-11-14T22:32:15.613Z,97864.41
2022-11-14T22:34:45.123Z,97865.06
2022-11-14T22:37:14.459Z,97857.16
2022-11-14T22:39:43.964Z,97860.56
2022-11-14T22:42:13.841Z,97856.13
2022-11-14T22:44:43.139Z,97853.72
2022-11-14T22:47:14.219Z,97852.03
2022-11-14T22:49:44.157Z,97845.03
2022-11-14T22:52:13.855Z,97842.34
2022-11-14T22:54:43.383Z,97838.69
2022-11-14T22:57:12.463Z,97834.63
2022-11-14T22:59:42.062Z,97840.72
2022-11-14T23:02:12.992Z,97845.78
2022-11-14T23:04:42.581Z,97848.38
2022-11-14T23:07:12.160Z,97853.88
2022-11-14T23:09:43.713Z,97847.59
2022-11-14T23:12:15.790Z,97848.75
2022-11-14T23:14:45.569Z,97839.38
2022-11-14T23:17:19.538Z,97841.78
2022-11-14T23:19:49.100Z,97824.25
2022-11-14T23:22:19.012Z,97836.63
2022-11-14T23:24:50.275Z,97846.09
2022-11-14T23:27:19.876Z,97839.22
2022-11-14T23:29:50.501Z,97844.28
2022-11-14T23:32:21.735Z,97843.84
2022-11-14T23:34:51.231Z,97832.66
2022-11-14T23:37:22.899Z,97834.81
2022-11-14T23:39:52.507Z,97833.69
2022-11-14T23:42:22.159Z,97835.09
2022-11-14T23:44:51.662Z,97831.84
2022-11-14T23:47:22.567Z,97836.59
2022-11-14T23:49:52.250Z,97823.50
2022-11-14T23:52:22.343Z,97814.59
2022-11-14T23:54:51.758Z,97813.13
2022-11-14T23:57:21.988Z,97819.16
2022-11-14T23:59:52.321Z,97819.97
